sensor_id;sensor_type;location;lat;lon;timestamp;temperature;humidity
51327;DHT22;37412;52.836;6.362;2024-01-10T00:02:22;-4.10;99.90
51327;DHT22;37412;52.836;6.362;2024-01-10T00:05:11;-4.10;99.90
51327;DHT22;37412;52.836;6.362;2024-01-10T00:07:57;-4.10;99.90
51327;DHT22;37412;52.836;6.362;2024-01-10T00:10:43;-4.10;99.90
51327;DHT22;37412;52.836;6.362;2024-01-10T00:13:31;-4.10;99.90
51327;DHT22;37412;52.836;6.362;2024-01-10T00:16:17;-4.10;99.90
51327;DHT22;37412;52.836;6.362;2024-01-10T00:19:03;-4.10;99.90
51327;DHT22;37412;52.836;6.362;2024-01-10T00:21:49;-4.10;99.90
51327;DHT22;37412;52.836;6.362;2024-01-10T00:24:35;-4.20;99.90
51327;DHT22;37412;52.836;6.362;2024-01-10T00:27:21;-4.20;99.90
51327;DHT22;37412;52.836;6.362;2024-01-10T00:30:08;-4.20;99.90
51327;DHT22;37412;52.836;6.362;2024-01-10T00:32:54;-4.20;99.90
51327;DHT22;37412;52.836;6.362;2024-01-10T00:35:41;-4.20;99.90
51327;DHT22;37412;52.836;6.362;2024-01-10T00:38:27;-4.20;99.90
51327;DHT22;37412;52.836;6.362;2024-01-10T00:41:13;-4.20;99.90
51327;DHT22;37412;52.836;6.362;2024-01-10T00:43:59;-4.20;99.90
51327;DHT22;37412;52.836;6.362;2024-01-10T00:46:45;-4.30;99.90
51327;DHT22;37412;52.836;6.362;2024-01-10T00:49:31;-4.20;99.90
51327;DHT22;37412;52.836;6.362;2024-01-10T00:52:17;-4.20;99.90
51327;DHT22;37412;52.836;6.362;2024-01-10T00:55:03;-2.30;99.90
51327;DHT22;37412;52.836;6.362;2024-01-10T00:57:49;-4.20;99.90
51327;DHT22;37412;52.836;6.362;2024-01-10T01:00:35;-2.90;99.90
51327;DHT22;37412;52.836;6.362;2024-01-10T01:03:21;-4.30;99.90
51327;DHT22;37412;52.836;6.362;2024-01-10T01:06:07;-4.30;99.90
51327;DHT22;37412;52.836;6.362;2024-01-10T01:08:53;-3.90;99.90
51327;DHT22;37412;52.836;6.362;2024-01-10T01:11:39;-4.30;99.90
51327;DHT22;37412;52.836;6.362;2024-01-10T01:14:25;-4.40;99.90
51327;DHT22;37412;52.836;6.362;2024-01-10T01:17:12;-4.40;99.90
51327;DHT22;37412;52.836;6.362;2024-01-10T01:19:58;-4.40;99.90
51327;DHT22;37412;52.836;6.362;2024-01-10T01:22:45;-4.40;99.90
51327;DHT22;37412;52.836;6.362;2024-01-10T01:25:31;-4.40;99.90
51327;DHT22;37412;52.836;6.362;2024-01-10T01:28:17;-4.40;99.90
51327;DHT22;37412;52.836;6.362;2024-01-10T01:31:03;-4.40;99.90
51327;DHT22;37412;52.836;6.362;2024-01-10T01:33:49;-4.40;99.90
51327;DHT22;37412;52.836;6.362;2024-01-10T01:36:35;-4.40;99.90
51327;DHT22;37412;52.836;6.362;2024-01-10T01:39:21;-4.30;99.90
51327;DHT22;37412;52.836;6.362;2024-01-10T01:42:07;-4.40;99.90
51327;DHT22;37412;52.836;6.362;2024-01-10T01:44:53;-4.30;99.90
51327;DHT22;37412;52.836;6.362;2024-01-10T01:47:40;-4.30;99.90
51327;DHT22;37412;52.836;6.362;2024-01-10T01:50:26;-4.40;99.90
51327;DHT22;37412;52.836;6.362;2024-01-10T01:53:13;-4.40;99.90
51327;DHT22;37412;52.836;6.362;2024-01-10T01:56:08;-4.30;99.90
51327;DHT22;37412;52.836;6.362;2024-01-10T01:58:54;-4.40;99.90
51327;DHT22;37412;52.836;6.362;2024-01-10T02:01:41;-4.40;99.90
51327;DHT22;37412;52.836;6.362;2024-01-10T02:04:28;-4.40;99.90
51327;DHT22;37412;52.836;6.362;2024-01-10T02:07:14;-4.40;99.90
51327;DHT22;37412;52.836;6.362;2024-01-10T02:10:00;-4.40;99.90
51327;DHT22;37412;52.836;6.362;2024-01-10T02:12:47;-4.40;99.90
51327;DHT22;37412;52.836;6.362;2024-01-10T02:15:33;-4.50;99.90
51327;DHT22;37412;52.836;6.362;2024-01-10T02:18:19;-2.60;99.90
51327;DHT22;37412;52.836;6.362;2024-01-10T02:21:06;-4.60;99.90
51327;DHT22;37412;52.836;6.362;2024-01-10T02:23:52;-4.50;99.90
51327;DHT22;37412;52.836;6.362;2024-01-10T02:26:39;-4.50;99.90
51327;DHT22;37412;52.836;6.362;2024-01-10T02:29:30;-4.60;99.90
51327;DHT22;37412;52.836;6.362;2024-01-10T02:32:17;-4.60;99.90
51327;DHT22;37412;52.836;6.362;2024-01-10T02:35:04;-4.60;99.90
51327;DHT22;37412;52.836;6.362;2024-01-10T02:37:50;-4.60;99.90
51327;DHT22;37412;52.836;6.362;2024-01-10T02:40:37;-4.60;99.90
51327;DHT22;37412;52.836;6.362;2024-01-10T02:43:23;-4.60;99.90
51327;DHT22;37412;52.836;6.362;2024-01-10T02:46:12;-4.60;99.90
51327;DHT22;37412;52.836;6.362;2024-01-10T02:48:58;-4.60;99.90
51327;DHT22;37412;52.836;6.362;2024-01-10T02:51:47;-2.90;99.90
51327;DHT22;37412;52.836;6.362;2024-01-10T02:54:33;-4.70;99.90
51327;DHT22;37412;52.836;6.362;2024-01-10T02:57:19;-3.00;99.90
51327;DHT22;37412;52.836;6.362;2024-01-10T03:00:06;-4.70;99.90
51327;DHT22;37412;52.836;6.362;2024-01-10T03:02:52;-4.70;99.90
51327;DHT22;37412;52.836;6.362;2024-01-10T03:05:38;-4.60;99.90
51327;DHT22;37412;52.836;6.362;2024-01-10T03:08:24;-4.70;99.90
51327;DHT22;37412;52.836;6.362;2024-01-10T03:11:10;-4.60;99.90
51327;DHT22;37412;52.836;6.362;2024-01-10T03:14:09;-4.40;99.90
51327;DHT22;37412;52.836;6.362;2024-01-10T03:16:55;-4.70;99.90
51327;DHT22;37412;52.836;6.362;2024-01-10T03:19:43;-4.70;99.90
51327;DHT22;37412;52.836;6.362;2024-01-10T03:22:30;-4.70;99.90
51327;DHT22;37412;52.836;6.362;2024-01-10T03:25:17;-4.70;99.90
51327;DHT22;37412;52.836;6.362;2024-01-10T03:28:03;-4.70;99.90
51327;DHT22;37412;52.836;6.362;2024-01-10T03:30:52;-4.70;99.90
51327;DHT22;37412;52.836;6.362;2024-01-10T03:33:38;-2.70;99.90
51327;DHT22;37412;52.836;6.362;2024-01-10T03:36:25;-4.70;99.90
51327;DHT22;37412;52.836;6.362;2024-01-10T03:39:11;-4.70;99.90
51327;DHT22;37412;52.836;6.362;2024-01-10T03:41:57;-4.70;99.90
51327;DHT22;37412;52.836;6.362;2024-01-10T03:44:43;-4.70;99.90
51327;DHT22;37412;52.836;6.362;2024-01-10T03:47:29;-4.70;99.90
51327;DHT22;37412;52.836;6.362;2024-01-10T03:50:19;-4.70;99.90
51327;DHT22;37412;52.836;6.362;2024-01-10T03:53:06;-4.70;99.90
51327;DHT22;37412;52.836;6.362;2024-01-10T03:55:52;-4.70;99.90
51327;DHT22;37412;52.836;6.362;2024-01-10T03:58:38;-4.70;99.90
51327;DHT22;37412;52.836;6.362;2024-01-10T04:01:24;-4.60;99.90
51327;DHT22;37412;52.836;6.362;2024-01-10T04:04:10;-4.60;99.90
51327;DHT22;37412;52.836;6.362;2024-01-10T04:06:56;-4.60;99.90
51327;DHT22;37412;52.836;6.362;2024-01-10T04:09:42;-4.70;99.90
51327;DHT22;37412;52.836;6.362;2024-01-10T04:12:29;-4.70;99.90
51327;DHT22;37412;52.836;6.362;2024-01-10T04:15:15;-4.70;99.90
51327;DHT22;37412;52.836;6.362;2024-01-10T04:18:03;-4.70;99.90
51327;DHT22;37412;52.836;6.362;2024-01-10T04:20:49;-4.70;99.90
51327;DHT22;37412;52.836;6.362;2024-01-10T04:23:35;-4.70;99.90
51327;DHT22;37412;52.836;6.362;2024-01-10T04:26:21;-4.70;99.90
51327;DHT22;37412;52.836;6.362;2024-01-10T04:29:07;-2.70;99.90
51327;DHT22;37412;52.836;6.362;2024-01-10T04:31:53;-4.70;99.90
51327;DHT22;37412;52.836;6.362;2024-01-10T04:34:39;-4.70;99.90
51327;DHT22;37412;52.836;6.362;2024-01-10T04:37:25;-4.70;99.90
51327;DHT22;37412;52.836;6.362;2024-01-10T04:40:13;-4.80;99.90
51327;DHT22;37412;52.836;6.362;2024-01-10T04:42:59;-4.70;99.90
51327;DHT22;37412;52.836;6.362;2024-01-10T04:45:45;-4.80;99.90
51327;DHT22;37412;52.836;6.362;2024-01-10T04:48:31;-4.70;99.90
51327;DHT22;37412;52.836;6.362;2024-01-10T04:51:17;-4.80;99.90
51327;DHT22;37412;52.836;6.362;2024-01-10T04:54:03;-4.80;99.90
51327;DHT22;37412;52.836;6.362;2024-01-10T04:56:49;-3.60;99.90
51327;DHT22;37412;52.836;6.362;2024-01-10T04:59:35;-4.90;99.90
51327;DHT22;37412;52.836;6.362;2024-01-10T05:02:21;-4.80;99.90
51327;DHT22;37412;52.836;6.362;2024-01-10T05:05:07;-4.80;99.90
51327;DHT22;37412;52.836;6.362;2024-01-10T05:07:53;-4.80;99.90
51327;DHT22;37412;52.836;6.362;2024-01-10T05:10:40;-4.90;99.90
51327;DHT22;37412;52.836;6.362;2024-01-10T05:13:26;-4.90;99.90
51327;DHT22;37412;52.836;6.362;2024-01-10T05:16:12;-4.80;99.90
51327;DHT22;37412;52.836;6.362;2024-01-10T05:19:01;-4.80;99.90
51327;DHT22;37412;52.836;6.362;2024-01-10T05:21:48;-5.00;99.90
51327;DHT22;37412;52.836;6.362;2024-01-10T05:24:34;-4.40;99.90
51327;DHT22;37412;52.836;6.362;2024-01-10T05:27:21;-5.00;99.90
51327;DHT22;37412;52.836;6.362;2024-01-10T05:30:07;-4.90;99.90
51327;DHT22;37412;52.836;6.362;2024-01-10T05:32:54;-4.90;99.90
51327;DHT22;37412;52.836;6.362;2024-01-10T05:35:40;-4.30;99.90
51327;DHT22;37412;52.836;6.362;2024-01-10T05:38:26;-4.80;99.90
51327;DHT22;37412;52.836;6.362;2024-01-10T05:41:11;-5.00;99.90
51327;DHT22;37412;52.836;6.362;2024-01-10T05:43:57;-4.90;99.90
51327;DHT22;37412;52.836;6.362;2024-01-10T05:46:43;-4.90;99.90
51327;DHT22;37412;52.836;6.362;2024-01-10T05:49:30;-5.00;99.90
51327;DHT22;37412;52.836;6.362;2024-01-10T05:52:16;-5.00;99.90
51327;DHT22;37412;52.836;6.362;2024-01-10T05:55:02;-5.00;99.90
51327;DHT22;37412;52.836;6.362;2024-01-10T05:57:50;-4.90;99.90
51327;DHT22;37412;52.836;6.362;2024-01-10T06:00:36;-4.90;99.90
51327;DHT22;37412;52.836;6.362;2024-01-10T06:03:22;-4.90;99.90
51327;DHT22;37412;52.836;6.362;2024-01-10T06:06:10;-4.90;99.90
51327;DHT22;37412;52.836;6.362;2024-01-10T06:08:56;-5.00;99.90
51327;DHT22;37412;52.836;6.362;2024-01-10T06:11:42;-5.00;99.90
51327;DHT22;37412;52.836;6.362;2024-01-10T06:14:29;-5.00;99.90
51327;DHT22;37412;52.836;6.362;2024-01-10T06:17:15;-4.90;99.90
51327;DHT22;37412;52.836;6.362;2024-01-10T06:20:01;-5.00;99.90
51327;DHT22;37412;52.836;6.362;2024-01-10T06:22:49;-4.80;99.90
51327;DHT22;37412;52.836;6.362;2024-01-10T06:25:35;-5.00;99.90
51327;DHT22;37412;52.836;6.362;2024-01-10T06:28:21;-4.90;99.90
51327;DHT22;37412;52.836;6.362;2024-01-10T06:31:08;-4.90;99.90
51327;DHT22;37412;52.836;6.362;2024-01-10T06:33:54;-4.90;99.90
51327;DHT22;37412;52.836;6.362;2024-01-10T06:36:41;-5.00;99.90
51327;DHT22;37412;52.836;6.362;2024-01-10T06:39:27;-4.90;99.90
51327;DHT22;37412;52.836;6.362;2024-01-10T06:42:13;-4.90;99.90
51327;DHT22;37412;52.836;6.362;2024-01-10T06:44:59;-4.90;99.90
51327;DHT22;37412;52.836;6.362;2024-01-10T06:47:45;-4.90;99.90
51327;DHT22;37412;52.836;6.362;2024-01-10T06:50:31;-4.90;99.90
51327;DHT22;37412;52.836;6.362;2024-01-10T06:53:17;-4.90;99.90
51327;DHT22;37412;52.836;6.362;2024-01-10T06:56:03;-4.90;99.90
51327;DHT22;37412;52.836;6.362;2024-01-10T06:58:49;-4.90;99.90
51327;DHT22;37412;52.836;6.362;2024-01-10T07:01:35;-4.90;99.90
51327;DHT22;37412;52.836;6.362;2024-01-10T07:04:22;-4.90;99.90
51327;DHT22;37412;52.836;6.362;2024-01-10T07:07:09;-4.40;99.90
51327;DHT22;37412;52.836;6.362;2024-01-10T07:09:57;-4.90;99.90
51327;DHT22;37412;52.836;6.362;2024-01-10T07:12:43;-3.40;99.90
51327;DHT22;37412;52.836;6.362;2024-01-10T07:15:29;-4.80;99.90
51327;DHT22;37412;52.836;6.362;2024-01-10T07:18:15;-5.00;99.90
51327;DHT22;37412;52.836;6.362;2024-01-10T07:21:01;-4.90;99.90
51327;DHT22;37412;52.836;6.362;2024-01-10T07:23:47;-4.90;99.90
51327;DHT22;37412;52.836;6.362;2024-01-10T07:26:33;-4.90;99.90
51327;DHT22;37412;52.836;6.362;2024-01-10T07:29:18;-4.90;99.90
51327;DHT22;37412;52.836;6.362;2024-01-10T07:32:05;-4.90;99.90
51327;DHT22;37412;52.836;6.362;2024-01-10T07:34:51;-4.90;99.90
51327;DHT22;37412;52.836;6.362;2024-01-10T07:37:41;-4.90;99.90
51327;DHT22;37412;52.836;6.362;2024-01-10T07:40:30;-4.90;99.90
51327;DHT22;37412;52.836;6.362;2024-01-10T07:43:17;-4.90;99.90
51327;DHT22;37412;52.836;6.362;2024-01-10T07:46:03;-4.90;99.90
51327;DHT22;37412;52.836;6.362;2024-01-10T07:48:49;-4.90;99.90
51327;DHT22;37412;52.836;6.362;2024-01-10T07:51:35;-4.90;99.90
51327;DHT22;37412;52.836;6.362;2024-01-10T07:54:24;-4.90;99.90
51327;DHT22;37412;52.836;6.362;2024-01-10T07:57:10;-4.90;99.90
51327;DHT22;37412;52.836;6.362;2024-01-10T07:59:56;-4.90;99.90
51327;DHT22;37412;52.836;6.362;2024-01-10T08:02:42;-3.60;99.90
51327;DHT22;37412;52.836;6.362;2024-01-10T08:05:28;-4.90;99.90
51327;DHT22;37412;52.836;6.362;2024-01-10T08:08:14;-4.90;99.90
51327;DHT22;37412;52.836;6.362;2024-01-10T08:11:03;-4.90;99.90
51327;DHT22;37412;52.836;6.362;2024-01-10T08:13:50;-4.80;99.90
51327;DHT22;37412;52.836;6.362;2024-01-10T08:16:37;-3.90;99.90
51327;DHT22;37412;52.836;6.362;2024-01-10T08:19:23;-4.90;99.90
51327;DHT22;37412;52.836;6.362;2024-01-10T08:22:12;-4.80;99.90
51327;DHT22;37412;52.836;6.362;2024-01-10T08:24:59;-4.80;99.90
51327;DHT22;37412;52.836;6.362;2024-01-10T08:27:45;-4.70;99.90
51327;DHT22;37412;52.836;6.362;2024-01-10T08:30:31;-4.70;99.90
51327;DHT22;37412;52.836;6.362;2024-01-10T08:33:18;-4.60;99.90
51327;DHT22;37412;52.836;6.362;2024-01-10T08:36:07;-4.50;99.90
51327;DHT22;37412;52.836;6.362;2024-01-10T08:38:55;-4.40;99.90
51327;DHT22;37412;52.836;6.362;2024-01-10T08:41:41;-4.40;99.90
51327;DHT22;37412;52.836;6.362;2024-01-10T08:44:30;-4.40;99.90
51327;DHT22;37412;52.836;6.362;2024-01-10T08:47:16;-4.30;99.90
51327;DHT22;37412;52.836;6.362;2024-01-10T08:50:03;-4.30;99.90
51327;DHT22;37412;52.836;6.362;2024-01-10T08:52:50;-4.20;99.90
51327;DHT22;37412;52.836;6.362;2024-01-10T08:55:36;-4.00;99.90
51327;DHT22;37412;52.836;6.362;2024-01-10T08:58:25;-3.90;99.90
51327;DHT22;37412;52.836;6.362;2024-01-10T09:01:11;-2.20;99.90
51327;DHT22;37412;52.836;6.362;2024-01-10T09:03:57;-3.70;99.90
51327;DHT22;37412;52.836;6.362;2024-01-10T09:06:43;-3.80;99.90
51327;DHT22;37412;52.836;6.362;2024-01-10T09:09:30;-3.80;99.90
51327;DHT22;37412;52.836;6.362;2024-01-10T09:12:16;-3.70;99.90
51327;DHT22;37412;52.836;6.362;2024-01-10T09:15:03;-3.70;99.90
51327;DHT22;37412;52.836;6.362;2024-01-10T09:17:49;-3.70;99.90
51327;DHT22;37412;52.836;6.362;2024-01-10T09:20:35;-3.70;99.90
51327;DHT22;37412;52.836;6.362;2024-01-10T09:23:24;-3.60;99.90
51327;DHT22;37412;52.836;6.362;2024-01-10T09:26:10;-3.60;99.90
51327;DHT22;37412;52.836;6.362;2024-01-10T09:28:56;-3.60;99.90
51327;DHT22;37412;52.836;6.362;2024-01-10T09:31:42;-3.60;99.90
51327;DHT22;37412;52.836;6.362;2024-01-10T09:34:29;-3.60;99.90
51327;DHT22;37412;52.836;6.362;2024-01-10T09:37:15;-3.60;99.90
51327;DHT22;37412;52.836;6.362;2024-01-10T09:40:01;-3.50;99.90
51327;DHT22;37412;52.836;6.362;2024-01-10T09:42:50;-2.10;99.90
51327;DHT22;37412;52.836;6.362;2024-01-10T09:45:46;-3.30;99.90
51327;DHT22;37412;52.836;6.362;2024-01-10T09:48:34;-3.40;99.90
51327;DHT22;37412;52.836;6.362;2024-01-10T09:51:21;-3.40;99.90
51327;DHT22;37412;52.836;6.362;2024-01-10T09:54:08;-3.30;99.90
51327;DHT22;37412;52.836;6.362;2024-01-10T09:56:54;-3.20;99.90
51327;DHT22;37412;52.836;6.362;2024-01-10T09:59:42;-3.20;99.90
51327;DHT22;37412;52.836;6.362;2024-01-10T10:02:29;-3.10;99.90
51327;DHT22;37412;52.836;6.362;2024-01-10T10:05:17;-3.00;99.90
51327;DHT22;37412;52.836;6.362;2024-01-10T10:08:06;-2.90;99.90
51327;DHT22;37412;52.836;6.362;2024-01-10T10:10:52;-2.80;99.90
51327;DHT22;37412;52.836;6.362;2024-01-10T10:13:38;-2.50;99.90
51327;DHT22;37412;52.836;6.362;2024-01-10T10:16:27;-2.20;99.90
51327;DHT22;37412;52.836;6.362;2024-01-10T10:19:13;-1.80;99.90
51327;DHT22;37412;52.836;6.362;2024-01-10T10:22:08;-1.40;99.90
51327;DHT22;37412;52.836;6.362;2024-01-10T10:24:54;-1.20;99.90
51327;DHT22;37412;52.836;6.362;2024-01-10T10:27:40;-1.10;99.90
51327;DHT22;37412;52.836;6.362;2024-01-10T10:30:26;-1.20;99.90
51327;DHT22;37412;52.836;6.362;2024-01-10T10:33:12;-1.20;99.90
51327;DHT22;37412;52.836;6.362;2024-01-10T10:35:58;-1.20;99.90
51327;DHT22;37412;52.836;6.362;2024-01-10T10:38:46;-1.10;99.90
51327;DHT22;37412;52.836;6.362;2024-01-10T10:41:33;-1.00;99.90
51327;DHT22;37412;52.836;6.362;2024-01-10T10:44:22;-0.70;99.90
51327;DHT22;37412;52.836;6.362;2024-01-10T10:47:09;-0.30;99.90
51327;DHT22;37412;52.836;6.362;2024-01-10T10:49:55;-0.20;99.90
51327;DHT22;37412;52.836;6.362;2024-01-10T10:52:44;-0.20;99.90
51327;DHT22;37412;52.836;6.362;2024-01-10T10:55:30;-0.50;99.90
51327;DHT22;37412;52.836;6.362;2024-01-10T10:58:16;-0.50;99.90
51327;DHT22;37412;52.836;6.362;2024-01-10T11:01:03;-0.60;99.90
51327;DHT22;37412;52.836;6.362;2024-01-10T11:03:51;-0.70;99.90
51327;DHT22;37412;52.836;6.362;2024-01-10T11:06:37;0.10;99.90
51327;DHT22;37412;52.836;6.362;2024-01-10T11:09:23;-0.30;99.90
51327;DHT22;37412;52.836;6.362;2024-01-10T11:15:20;0.30;99.90
51327;DHT22;37412;52.836;6.362;2024-01-10T11:24:20;-0.10;99.90
51327;DHT22;37412;52.836;6.362;2024-01-10T11:27:06;-0.20;99.90
51327;DHT22;37412;52.836;6.362;2024-01-10T11:29:54;0.00;99.90
51327;DHT22;37412;52.836;6.362;2024-01-10T11:32:40;0.60;99.90
51327;DHT22;37412;52.836;6.362;2024-01-10T11:35:25;1.20;99.90
51327;DHT22;37412;52.836;6.362;2024-01-10T11:38:11;1.40;96.30
51327;DHT22;37412;52.836;6.362;2024-01-10T11:40:57;1.70;98.10
51327;DHT22;37412;52.836;6.362;2024-01-10T11:43:43;2.10;94.30
51327;DHT22;37412;52.836;6.362;2024-01-10T11:46:29;2.60;94.90
51327;DHT22;37412;52.836;6.362;2024-01-10T11:49:20;3.00;94.40
51327;DHT22;37412;52.836;6.362;2024-01-10T11:52:09;3.30;93.50
51327;DHT22;37412;52.836;6.362;2024-01-10T11:54:56;3.90;92.60
51327;DHT22;37412;52.836;6.362;2024-01-10T11:57:42;3.40;93.00
51327;DHT22;37412;52.836;6.362;2024-01-10T12:00:28;3.90;91.40
51327;DHT22;37412;52.836;6.362;2024-01-10T12:03:14;2.90;92.70
51327;DHT22;37412;52.836;6.362;2024-01-10T12:06:01;2.90;93.90
51327;DHT22;37412;52.836;6.362;2024-01-10T12:08:48;3.20;91.20
51327;DHT22;37412;52.836;6.362;2024-01-10T12:11:34;3.70;90.10
51327;DHT22;37412;52.836;6.362;2024-01-10T12:14:20;4.10;90.20
51327;DHT22;37412;52.836;6.362;2024-01-10T12:17:15;4.40;89.50
51327;DHT22;37412;52.836;6.362;2024-01-10T12:20:05;4.60;88.10
51327;DHT22;37412;52.836;6.362;2024-01-10T12:22:52;4.30;84.60
51327;DHT22;37412;52.836;6.362;2024-01-10T12:25:38;4.00;86.50
51327;DHT22;37412;52.836;6.362;2024-01-10T12:28:24;3.60;84.80
51327;DHT22;37412;52.836;6.362;2024-01-10T12:31:10;3.20;84.60
51327;DHT22;37412;52.836;6.362;2024-01-10T12:33:58;3.00;86.80
51327;DHT22;37412;52.836;6.362;2024-01-10T12:36:44;2.80;90.50
51327;DHT22;37412;52.836;6.362;2024-01-10T12:39:31;2.90;90.70
51327;DHT22;37412;52.836;6.362;2024-01-10T12:42:17;3.00;90.20
51327;DHT22;37412;52.836;6.362;2024-01-10T12:45:04;3.20;89.70
51327;DHT22;37412;52.836;6.362;2024-01-10T12:47:53;3.50;90.40
51327;DHT22;37412;52.836;6.362;2024-01-10T12:50:39;3.40;90.30
51327;DHT22;37412;52.836;6.362;2024-01-10T12:53:27;3.20;89.00
51327;DHT22;37412;52.836;6.362;2024-01-10T12:56:14;2.80;89.90
51327;DHT22;37412;52.836;6.362;2024-01-10T12:59:00;2.70;90.70
51327;DHT22;37412;52.836;6.362;2024-01-10T13:01:46;2.60;91.20
51327;DHT22;37412;52.836;6.362;2024-01-10T13:04:32;2.60;89.50
51327;DHT22;37412;52.836;6.362;2024-01-10T13:07:18;2.70;90.10
51327;DHT22;37412;52.836;6.362;2024-01-10T13:10:05;2.70;90.30
51327;DHT22;37412;52.836;6.362;2024-01-10T13:12:51;2.40;90.50
51327;DHT22;37412;52.836;6.362;2024-01-10T13:15:38;2.80;90.70
51327;DHT22;37412;52.836;6.362;2024-01-10T13:18:24;1.80;90.20
51327;DHT22;37412;52.836;6.362;2024-01-10T13:21:10;1.80;90.10
51327;DHT22;37412;52.836;6.362;2024-01-10T13:23:57;1.60;90.90
51327;DHT22;37412;52.836;6.362;2024-01-10T13:26:44;1.30;90.70
51327;DHT22;37412;52.836;6.362;2024-01-10T13:29:30;1.10;91.30
51327;DHT22;37412;52.836;6.362;2024-01-10T13:32:18;0.90;91.90
51327;DHT22;37412;52.836;6.362;2024-01-10T13:35:04;1.20;93.20
51327;DHT22;37412;52.836;6.362;2024-01-10T13:37:50;0.90;93.80
51327;DHT22;37412;52.836;6.362;2024-01-10T13:40:36;1.00;93.20
51327;DHT22;37412;52.836;6.362;2024-01-10T13:43:22;1.20;92.60
51327;DHT22;37412;52.836;6.362;2024-01-10T13:46:08;1.30;93.00
51327;DHT22;37412;52.836;6.362;2024-01-10T13:48:54;2.10;92.60
51327;DHT22;37412;52.836;6.362;2024-01-10T13:51:40;1.80;92.40
51327;DHT22;37412;52.836;6.362;2024-01-10T13:54:27;2.00;91.90
51327;DHT22;37412;52.836;6.362;2024-01-10T13:57:13;2.10;93.00
51327;DHT22;37412;52.836;6.362;2024-01-10T14:00:03;3.60;92.50
51327;DHT22;37412;52.836;6.362;2024-01-10T14:02:49;2.70;91.70
51327;DHT22;37412;52.836;6.362;2024-01-10T14:05:40;2.80;91.70
51327;DHT22;37412;52.836;6.362;2024-01-10T14:08:27;2.80;90.60
51327;DHT22;37412;52.836;6.362;2024-01-10T14:11:13;2.70;92.10
51327;DHT22;37412;52.836;6.362;2024-01-10T14:13:59;2.60;92.30
51327;DHT22;37412;52.836;6.362;2024-01-10T14:16:45;2.40;91.00
51327;DHT22;37412;52.836;6.362;2024-01-10T14:19:31;3.40;92.50
51327;DHT22;37412;52.836;6.362;2024-01-10T14:22:17;2.30;93.20
51327;DHT22;37412;52.836;6.362;2024-01-10T14:25:04;2.70;93.80
51327;DHT22;37412;52.836;6.362;2024-01-10T14:27:54;3.10;90.10
51327;DHT22;37412;52.836;6.362;2024-01-10T14:30:44;3.40;90.60
51327;DHT22;37412;52.836;6.362;2024-01-10T14:33:31;3.60;91.30
51327;DHT22;37412;52.836;6.362;2024-01-10T14:36:17;3.70;91.80
51327;DHT22;37412;52.836;6.362;2024-01-10T14:39:04;4.60;93.00
51327;DHT22;37412;52.836;6.362;2024-01-10T14:41:53;4.50;93.40
51327;DHT22;37412;52.836;6.362;2024-01-10T14:44:39;3.20;92.50
51327;DHT22;37412;52.836;6.362;2024-01-10T14:47:26;2.70;92.50
51327;DHT22;37412;52.836;6.362;2024-01-10T14:50:14;3.20;93.40
51327;DHT22;37412;52.836;6.362;2024-01-10T14:53:00;2.20;92.70
51327;DHT22;37412;52.836;6.362;2024-01-10T14:55:46;1.60;92.80
51327;DHT22;37412;52.836;6.362;2024-01-10T14:58:32;1.40;94.00
51327;DHT22;37412;52.836;6.362;2024-01-10T15:01:17;1.00;93.70
51327;DHT22;37412;52.836;6.362;2024-01-10T15:04:05;0.70;94.50
51327;DHT22;37412;52.836;6.362;2024-01-10T15:06:51;0.50;95.50
51327;DHT22;37412;52.836;6.362;2024-01-10T15:09:37;0.40;96.10
51327;DHT22;37412;52.836;6.362;2024-01-10T15:12:23;0.20;96.70
51327;DHT22;37412;52.836;6.362;2024-01-10T15:15:09;0.10;97.30
51327;DHT22;37412;52.836;6.362;2024-01-10T15:17:56;-0.10;97.90
51327;DHT22;37412;52.836;6.362;2024-01-10T15:20:42;-0.20;98.00
51327;DHT22;37412;52.836;6.362;2024-01-10T15:23:28;-0.30;98.30
51327;DHT22;37412;52.836;6.362;2024-01-10T15:26:18;-0.40;98.60
51327;DHT22;37412;52.836;6.362;2024-01-10T15:29:04;-0.40;99.10
51327;DHT22;37412;52.836;6.362;2024-01-10T15:31:50;-0.50;99.50
51327;DHT22;37412;52.836;6.362;2024-01-10T15:34:36;-0.60;99.80
51327;DHT22;37412;52.836;6.362;2024-01-10T15:37:24;0.20;99.90
51327;DHT22;37412;52.836;6.362;2024-01-10T15:40:11;-0.80;99.90
51327;DHT22;37412;52.836;6.362;2024-01-10T15:42:57;-0.80;99.90
51327;DHT22;37412;52.836;6.362;2024-01-10T15:45:43;-0.90;99.90
51327;DHT22;37412;52.836;6.362;2024-01-10T15:48:33;-1.00;99.90
51327;DHT22;37412;52.836;6.362;2024-01-10T15:51:22;-1.00;99.90
51327;DHT22;37412;52.836;6.362;2024-01-10T15:54:10;-1.10;99.90
51327;DHT22;37412;52.836;6.362;2024-01-10T15:56:56;-1.20;99.90
51327;DHT22;37412;52.836;6.362;2024-01-10T15:59:42;-1.20;99.90
51327;DHT22;37412;52.836;6.362;2024-01-10T16:02:28;-1.30;99.90
51327;DHT22;37412;52.836;6.362;2024-01-10T16:05:16;-1.40;99.90
51327;DHT22;37412;52.836;6.362;2024-01-10T16:08:02;-1.40;99.90
51327;DHT22;37412;52.836;6.362;2024-01-10T16:10:50;-1.50;99.90
51327;DHT22;37412;52.836;6.362;2024-01-10T16:13:36;-1.50;99.90
51327;DHT22;37412;52.836;6.362;2024-01-10T16:16:23;-1.60;99.90
51327;DHT22;37412;52.836;6.362;2024-01-10T16:19:14;-1.60;99.90
51327;DHT22;37412;52.836;6.362;2024-01-10T16:22:03;-1.60;99.90
51327;DHT22;37412;52.836;6.362;2024-01-10T16:24:49;-1.70;99.90
51327;DHT22;37412;52.836;6.362;2024-01-10T16:27:41;-1.90;99.90
51327;DHT22;37412;52.836;6.362;2024-01-10T16:30:27;-1.70;99.90
51327;DHT22;37412;52.836;6.362;2024-01-10T16:33:15;-1.70;99.90
51327;DHT22;37412;52.836;6.362;2024-01-10T16:36:01;-1.90;99.90
51327;DHT22;37412;52.836;6.362;2024-01-10T16:38:50;-1.80;99.90
51327;DHT22;37412;52.836;6.362;2024-01-10T16:41:37;-1.80;99.90
51327;DHT22;37412;52.836;6.362;2024-01-10T16:44:24;-1.90;99.90
51327;DHT22;37412;52.836;6.362;2024-01-10T16:47:10;0.20;99.90
51327;DHT22;37412;52.836;6.362;2024-01-10T16:49:56;-1.90;99.90
51327;DHT22;37412;52.836;6.362;2024-01-10T16:52:42;-2.00;99.90
51327;DHT22;37412;52.836;6.362;2024-01-10T16:55:29;-0.70;99.90
51327;DHT22;37412;52.836;6.362;2024-01-10T16:58:15;-2.10;99.90
51327;DHT22;37412;52.836;6.362;2024-01-10T17:01:02;-0.30;99.90
51327;DHT22;37412;52.836;6.362;2024-01-10T17:03:48;-2.10;99.90
51327;DHT22;37412;52.836;6.362;2024-01-10T17:06:34;-3.30;99.90
51327;DHT22;37412;52.836;6.362;2024-01-10T17:09:21;-2.20;99.90
51327;DHT22;37412;52.836;6.362;2024-01-10T17:12:08;-2.20;99.90
51327;DHT22;37412;52.836;6.362;2024-01-10T17:14:55;-2.20;99.90
51327;DHT22;37412;52.836;6.362;2024-01-10T17:17:41;-2.20;99.90
51327;DHT22;37412;52.836;6.362;2024-01-10T17:20:27;-2.30;99.90
51327;DHT22;37412;52.836;6.362;2024-01-10T17:23:13;-2.20;99.90
51327;DHT22;37412;52.836;6.362;2024-01-10T17:26:00;-1.30;99.90
51327;DHT22;37412;52.836;6.362;2024-01-10T17:28:46;-0.30;99.90
51327;DHT22;37412;52.836;6.362;2024-01-10T17:31:36;-0.60;99.90
51327;DHT22;37412;52.836;6.362;2024-01-10T17:34:22;-2.40;99.90
51327;DHT22;37412;52.836;6.362;2024-01-10T17:37:08;-2.40;99.90
51327;DHT22;37412;52.836;6.362;2024-01-10T17:39:54;-1.20;99.90
51327;DHT22;37412;52.836;6.362;2024-01-10T17:42:41;-2.50;99.90
51327;DHT22;37412;52.836;6.362;2024-01-10T17:45:27;-2.50;99.90
51327;DHT22;37412;52.836;6.362;2024-01-10T17:48:18;-2.50;99.90